sensor_id;sensor_type;location;lat;lon;timestamp;P1;durP1;ratioP1;P2;durP2;ratioP2
15331;SDS011;7766;51.534;6.722;2023-02-15T00:00:51;24.60;;;16.05;;
15331;SDS011;7766;51.534;6.722;2023-02-15T00:01:54;26.40;;;17.05;;
15331;SDS011;7766;51.534;6.722;2023-02-15T00:02:56;26.13;;;17.27;;
15331;SDS011;7766;51.534;6.722;2023-02-15T00:03:57;24.98;;;16.02;;
15331;SDS011;7766;51.534;6.722;2023-02-15T00:04:58;25.55;;;15.98;;
15331;SDS011;7766;51.534;6.722;2023-02-15T00:05:59;22.58;;;15.57;;
15331;SDS011;7766;51.534;6.722;2023-02-15T00:07:00;27.60;;;16.13;;
15331;SDS011;7766;51.534;6.722;2023-02-15T00:08:02;25.77;;;15.75;;
15331;SDS011;7766;51.534;6.722;2023-02-15T00:09:03;24.83;;;15.20;;
15331;SDS011;7766;51.534;6.722;2023-02-15T00:10:04;26.65;;;15.63;;
15331;SDS011;7766;51.534;6.722;2023-02-15T00:11:06;23.70;;;15.93;;
15331;SDS011;7766;51.534;6.722;2023-02-15T00:12:09;24.73;;;16.13;;
15331;SDS011;7766;51.534;6.722;2023-02-15T00:13:10;25.63;;;16.42;;
15331;SDS011;7766;51.534;6.722;2023-02-15T00:14:15;26.30;;;16.73;;
15331;SDS011;7766;51.534;6.722;2023-02-15T00:15:21;26.13;;;17.23;;
15331;SDS011;7766;51.534;6.722;2023-02-15T00:16:22;25.53;;;16.00;;
15331;SDS011;7766;51.534;6.722;2023-02-15T00:17:23;28.83;;;16.90;;
15331;SDS011;7766;51.534;6.722;2023-02-15T00:18:26;27.38;;;16.92;;
15331;SDS011;7766;51.534;6.722;2023-02-15T00:19:27;24.17;;;15.75;;
15331;SDS011;7766;51.534;6.722;2023-02-15T00:20:28;25.33;;;17.52;;
15331;SDS011;7766;51.534;6.722;2023-02-15T00:21:30;26.10;;;17.07;;
15331;SDS011;7766;51.534;6.722;2023-02-15T00:22:32;25.27;;;16.17;;
15331;SDS011;7766;51.534;6.722;2023-02-15T00:23:33;26.63;;;17.33;;
15331;SDS011;7766;51.534;6.722;2023-02-15T00:24:34;30.60;;;18.02;;
15331;SDS011;7766;51.534;6.722;2023-02-15T00:25:35;29.63;;;17.77;;
15331;SDS011;7766;51.534;6.722;2023-02-15T00:26:37;29.23;;;18.70;;
15331;SDS011;7766;51.534;6.722;2023-02-15T00:27:39;28.95;;;17.10;;
15331;SDS011;7766;51.534;6.722;2023-02-15T00:28:40;29.73;;;18.20;;
15331;SDS011;7766;51.534;6.722;2023-02-15T00:29:41;29.58;;;17.75;;
15331;SDS011;7766;51.534;6.722;2023-02-15T00:30:42;28.50;;;18.33;;
15331;SDS011;7766;51.534;6.722;2023-02-15T00:31:43;28.77;;;17.23;;
15331;SDS011;7766;51.534;6.722;2023-02-15T00:32:46;29.35;;;17.65;;
15331;SDS011;7766;51.534;6.722;2023-02-15T00:33:48;30.13;;;18.15;;
15331;SDS011;7766;51.534;6.722;2023-02-15T00:34:49;28.15;;;18.13;;
15331;SDS011;7766;51.534;6.722;2023-02-15T00:35:55;25.73;;;17.40;;
15331;SDS011;7766;51.534;6.722;2023-02-15T00:36:57;26.35;;;17.13;;
15331;SDS011;7766;51.534;6.722;2023-02-15T00:37:57;27.63;;;17.53;;
15331;SDS011;7766;51.534;6.722;2023-02-15T00:38:58;26.43;;;16.60;;
15331;SDS011;7766;51.534;6.722;2023-02-15T00:39:59;30.65;;;18.63;;
15331;SDS011;7766;51.534;6.722;2023-02-15T00:41:01;28.73;;;17.25;;
15331;SDS011;7766;51.534;6.722;2023-02-15T00:42:03;28.73;;;17.95;;
15331;SDS011;7766;51.534;6.722;2023-02-15T00:43:04;27.42;;;17.88;;
15331;SDS011;7766;51.534;6.722;2023-02-15T00:44:05;27.67;;;17.80;;
15331;SDS011;7766;51.534;6.722;2023-02-15T00:45:07;28.33;;;18.60;;
15331;SDS011;7766;51.534;6.722;2023-02-15T00:46:08;26.27;;;17.10;;
15331;SDS011;7766;51.534;6.722;2023-02-15T00:47:09;24.73;;;16.75;;
15331;SDS011;7766;51.534;6.722;2023-02-15T00:48:10;26.38;;;16.50;;
15331;SDS011;7766;51.534;6.722;2023-02-15T00:49:11;29.55;;;17.60;;
15331;SDS011;7766;51.534;6.722;2023-02-15T00:50:12;26.77;;;17.70;;
15331;SDS011;7766;51.534;6.722;2023-02-15T00:51:13;28.55;;;17.20;;
15331;SDS011;7766;51.534;6.722;2023-02-15T00:52:14;48.58;;;28.27;;
15331;SDS011;7766;51.534;6.722;2023-02-15T00:53:16;78.20;;;39.03;;
15331;SDS011;7766;51.534;6.722;2023-02-15T00:54:16;31.55;;;20.08;;
15331;SDS011;7766;51.534;6.722;2023-02-15T00:55:18;29.58;;;18.52;;
15331;SDS011;7766;51.534;6.722;2023-02-15T00:56:19;36.35;;;22.92;;
15331;SDS011;7766;51.534;6.722;2023-02-15T00:57:20;30.23;;;18.60;;
15331;SDS011;7766;51.534;6.722;2023-02-15T00:58:21;30.70;;;20.33;;
15331;SDS011;7766;51.534;6.722;2023-02-15T00:59:22;27.10;;;16.75;;
15331;SDS011;7766;51.534;6.722;2023-02-15T01:00:23;29.10;;;18.00;;
15331;SDS011;7766;51.534;6.722;2023-02-15T01:01:24;28.20;;;16.77;;
15331;SDS011;7766;51.534;6.722;2023-02-15T01:02:25;33.53;;;17.90;;
15331;SDS011;7766;51.534;6.722;2023-02-15T01:03:26;33.43;;;18.73;;
15331;SDS011;7766;51.534;6.722;2023-02-15T01:04:27;27.10;;;16.73;;
15331;SDS011;7766;51.534;6.722;2023-02-15T01:05:28;31.97;;;17.80;;
15331;SDS011;7766;51.534;6.722;2023-02-15T01:06:29;31.55;;;16.63;;
15331;SDS011;7766;51.534;6.722;2023-02-15T01:07:30;28.25;;;17.45;;
15331;SDS011;7766;51.534;6.722;2023-02-15T01:08:31;26.17;;;16.33;;
15331;SDS011;7766;51.534;6.722;2023-02-15T01:09:32;28.35;;;17.63;;
15331;SDS011;7766;51.534;6.722;2023-02-15T01:10:34;29.90;;;17.92;;
15331;SDS011;7766;51.534;6.722;2023-02-15T01:11:35;28.63;;;17.35;;
15331;SDS011;7766;51.534;6.722;2023-02-15T01:12:36;27.35;;;17.75;;
15331;SDS011;7766;51.534;6.722;2023-02-15T01:13:37;27.83;;;17.47;;
15331;SDS011;7766;51.534;6.722;2023-02-15T01:14:39;30.02;;;18.48;;
15331;SDS011;7766;51.534;6.722;2023-02-15T01:15:40;26.98;;;16.30;;
15331;SDS011;7766;51.534;6.722;2023-02-15T01:16:41;31.15;;;18.17;;
15331;SDS011;7766;51.534;6.722;2023-02-15T01:17:42;32.10;;;17.73;;
15331;SDS011;7766;51.534;6.722;2023-02-15T01:18:45;31.10;;;18.48;;
15331;SDS011;7766;51.534;6.722;2023-02-15T01:19:46;25.55;;;17.70;;
15331;SDS011;7766;51.534;6.722;2023-02-15T01:20:47;31.40;;;18.57;;
15331;SDS011;7766;51.534;6.722;2023-02-15T01:21:48;29.63;;;17.90;;
15331;SDS011;7766;51.534;6.722;2023-02-15T01:22:50;33.03;;;21.33;;
15331;SDS011;7766;51.534;6.722;2023-02-15T01:23:51;31.25;;;18.13;;
15331;SDS011;7766;51.534;6.722;2023-02-15T01:24:52;28.70;;;18.33;;
15331;SDS011;7766;51.534;6.722;2023-02-15T01:25:53;28.73;;;18.97;;
15331;SDS011;7766;51.534;6.722;2023-02-15T01:26:54;29.10;;;18.05;;
15331;SDS011;7766;51.534;6.722;2023-02-15T01:27:55;28.50;;;17.47;;
15331;SDS011;7766;51.534;6.722;2023-02-15T01:28:56;28.35;;;17.60;;
15331;SDS011;7766;51.534;6.722;2023-02-15T01:29:57;29.57;;;18.37;;
15331;SDS011;7766;51.534;6.722;2023-02-15T01:30:58;28.33;;;17.40;;
15331;SDS011;7766;51.534;6.722;2023-02-15T01:32:04;31.85;;;18.50;;
15331;SDS011;7766;51.534;6.722;2023-02-15T01:33:05;27.93;;;17.30;;
15331;SDS011;7766;51.534;6.722;2023-02-15T01:34:06;28.40;;;17.75;;
15331;SDS011;7766;51.534;6.722;2023-02-15T01:35:07;26.13;;;17.02;;
15331;SDS011;7766;51.534;6.722;2023-02-15T01:36:09;29.02;;;17.88;;
15331;SDS011;7766;51.534;6.722;2023-02-15T01:37:10;26.80;;;17.42;;
15331;SDS011;7766;51.534;6.722;2023-02-15T01:38:12;27.23;;;16.83;;
15331;SDS011;7766;51.534;6.722;2023-02-15T01:39:13;27.98;;;17.92;;
15331;SDS011;7766;51.534;6.722;2023-02-15T01:40:15;27.42;;;17.48;;
15331;SDS011;7766;51.534;6.722;2023-02-15T01:41:17;32.17;;;17.25;;
15331;SDS011;7766;51.534;6.722;2023-02-15T01:42:23;28.85;;;17.42;;
15331;SDS011;7766;51.534;6.722;2023-02-15T01:43:38;29.50;;;18.20;;
15331;SDS011;7766;51.534;6.722;2023-02-15T01:45:57;29.60;;;17.75;;
15331;SDS011;7766;51.534;6.722;2023-02-15T01:46:58;28.97;;;17.83;;
15331;SDS011;7766;51.534;6.722;2023-02-15T01:49:16;27.42;;;17.67;;
15331;SDS011;7766;51.534;6.722;2023-02-15T01:50:28;30.35;;;18.30;;
15331;SDS011;7766;51.534;6.722;2023-02-15T01:51:35;30.88;;;18.05;;
15331;SDS011;7766;51.534;6.722;2023-02-15T01:52:44;28.05;;;18.35;;
15331;SDS011;7766;51.534;6.722;2023-02-15T01:54:29;28.40;;;16.98;;
15331;SDS011;7766;51.534;6.722;2023-02-15T01:55:34;29.85;;;17.83;;
15331;SDS011;7766;51.534;6.722;2023-02-15T01:56:42;27.27;;;17.27;;
15331;SDS011;7766;51.534;6.722;2023-02-15T01:57:43;32.80;;;18.80;;
15331;SDS011;7766;51.534;6.722;2023-02-15T01:58:46;27.20;;;18.45;;
15331;SDS011;7766;51.534;6.722;2023-02-15T01:59:50;30.20;;;17.88;;
15331;SDS011;7766;51.534;6.722;2023-02-15T02:00:54;27.90;;;18.02;;
15331;SDS011;7766;51.534;6.722;2023-02-15T02:01:59;32.00;;;18.67;;
15331;SDS011;7766;51.534;6.722;2023-02-15T02:03:01;28.92;;;18.20;;
15331;SDS011;7766;51.534;6.722;2023-02-15T02:04:11;29.38;;;17.42;;
15331;SDS011;7766;51.534;6.722;2023-02-15T02:05:30;27.45;;;17.70;;
15331;SDS011;7766;51.534;6.722;2023-02-15T02:06:33;29.70;;;18.55;;
15331;SDS011;7766;51.534;6.722;2023-02-15T02:07:38;29.48;;;17.95;;
15331;SDS011;7766;51.534;6.722;2023-02-15T02:08:42;27.88;;;17.52;;
15331;SDS011;7766;51.534;6.722;2023-02-15T02:09:44;29.02;;;17.52;;
15331;SDS011;7766;51.534;6.722;2023-02-15T02:10:45;29.48;;;17.63;;
15331;SDS011;7766;51.534;6.722;2023-02-15T02:11:46;29.02;;;17.13;;
15331;SDS011;7766;51.534;6.722;2023-02-15T02:12:49;28.65;;;18.23;;
15331;SDS011;7766;51.534;6.722;2023-02-15T02:13:57;27.83;;;18.25;;
15331;SDS011;7766;51.534;6.722;2023-02-15T02:14:58;28.00;;;17.85;;
15331;SDS011;7766;51.534;6.722;2023-02-15T02:16:01;27.75;;;17.25;;
15331;SDS011;7766;51.534;6.722;2023-02-15T02:20:41;26.80;;;15.95;;
15331;SDS011;7766;51.534;6.722;2023-02-15T02:25:05;29.48;;;18.40;;
15331;SDS011;7766;51.534;6.722;2023-02-15T02:28:43;30.83;;;18.10;;
15331;SDS011;7766;51.534;6.722;2023-02-15T02:29:51;31.38;;;17.85;;
15331;SDS011;7766;51.534;6.722;2023-02-15T02:36:47;30.55;;;18.98;;
15331;SDS011;7766;51.534;6.722;2023-02-15T02:38:08;34.88;;;18.27;;
15331;SDS011;7766;51.534;6.722;2023-02-15T02:40:50;32.15;;;18.70;;
15331;SDS011;7766;51.534;6.722;2023-02-15T02:42:12;31.90;;;17.83;;
15331;SDS011;7766;51.534;6.722;2023-02-15T02:43:54;31.58;;;18.02;;
15331;SDS011;7766;51.534;6.722;2023-02-15T02:45:00;28.35;;;17.73;;
15331;SDS011;7766;51.534;6.722;2023-02-15T02:46:20;32.78;;;18.80;;
15331;SDS011;7766;51.534;6.722;2023-02-15T02:47:34;36.78;;;18.50;;
15331;SDS011;7766;51.534;6.722;2023-02-15T02:48:43;33.38;;;18.98;;
15331;SDS011;7766;51.534;6.722;2023-02-15T02:49:45;32.20;;;18.13;;
15331;SDS011;7766;51.534;6.722;2023-02-15T02:50:46;27.65;;;17.70;;
15331;SDS011;7766;51.534;6.722;2023-02-15T02:51:47;30.65;;;17.83;;
15331;SDS011;7766;51.534;6.722;2023-02-15T02:52:58;29.80;;;17.10;;
15331;SDS011;7766;51.534;6.722;2023-02-15T02:53:59;28.55;;;18.38;;
15331;SDS011;7766;51.534;6.722;2023-02-15T02:55:05;30.55;;;18.45;;
15331;SDS011;7766;51.534;6.722;2023-02-15T02:57:24;27.02;;;16.83;;
15331;SDS011;7766;51.534;6.722;2023-02-15T02:59:32;25.08;;;15.48;;
15331;SDS011;7766;51.534;6.722;2023-02-15T03:00:39;29.65;;;16.20;;
15331;SDS011;7766;51.534;6.722;2023-02-15T03:01:52;24.17;;;15.52;;
15331;SDS011;7766;51.534;6.722;2023-02-15T03:03:12;28.00;;;15.80;;
15331;SDS011;7766;51.534;6.722;2023-02-15T03:04:31;29.92;;;17.67;;
15331;SDS011;7766;51.534;6.722;2023-02-15T03:05:40;27.23;;;16.20;;
15331;SDS011;7766;51.534;6.722;2023-02-15T03:06:46;28.98;;;17.58;;
15331;SDS011;7766;51.534;6.722;2023-02-15T03:07:49;27.17;;;16.67;;
15331;SDS011;7766;51.534;6.722;2023-02-15T03:08:53;30.92;;;16.83;;
15331;SDS011;7766;51.534;6.722;2023-02-15T03:10:14;29.17;;;17.30;;
15331;SDS011;7766;51.534;6.722;2023-02-15T03:11:15;33.08;;;18.55;;
15331;SDS011;7766;51.534;6.722;2023-02-15T03:12:19;33.77;;;19.20;;
15331;SDS011;7766;51.534;6.722;2023-02-15T03:13:27;31.92;;;18.63;;
15331;SDS011;7766;51.534;6.722;2023-02-15T03:14:29;31.58;;;17.90;;
15331;SDS011;7766;51.534;6.722;2023-02-15T03:15:31;31.30;;;18.58;;
15331;SDS011;7766;51.534;6.722;2023-02-15T03:16:55;32.53;;;19.25;;
15331;SDS011;7766;51.534;6.722;2023-02-15T03:17:58;32.80;;;20.23;;
15331;SDS011;7766;51.534;6.722;2023-02-15T03:19:06;36.10;;;19.88;;
15331;SDS011;7766;51.534;6.722;2023-02-15T03:20:29;31.02;;;19.15;;
15331;SDS011;7766;51.534;6.722;2023-02-15T03:21:56;29.05;;;18.25;;
15331;SDS011;7766;51.534;6.722;2023-02-15T03:23:09;33.20;;;19.67;;
15331;SDS011;7766;51.534;6.722;2023-02-15T03:24:21;30.63;;;18.90;;
15331;SDS011;7766;51.534;6.722;2023-02-15T03:25:30;31.08;;;19.65;;
15331;SDS011;7766;51.534;6.722;2023-02-15T03:26:34;34.50;;;20.05;;
15331;SDS011;7766;51.534;6.722;2023-02-15T03:27:40;32.70;;;19.95;;
15331;SDS011;7766;51.534;6.722;2023-02-15T03:28:45;32.58;;;19.80;;
15331;SDS011;7766;51.534;6.722;2023-02-15T03:29:55;33.95;;;20.08;;
15331;SDS011;7766;51.534;6.722;2023-02-15T03:30:58;33.28;;;19.15;;
15331;SDS011;7766;51.534;6.722;2023-02-15T03:32:02;33.78;;;19.83;;
15331;SDS011;7766;51.534;6.722;2023-02-15T03:33:07;33.47;;;20.13;;
15331;SDS011;7766;51.534;6.722;2023-02-15T03:34:11;34.72;;;19.92;;
15331;SDS011;7766;51.534;6.722;2023-02-15T03:35:14;34.22;;;21.42;;
15331;SDS011;7766;51.534;6.722;2023-02-15T03:37:47;32.38;;;21.25;;
15331;SDS011;7766;51.534;6.722;2023-02-15T03:38:59;33.83;;;20.33;;
15331;SDS011;7766;51.534;6.722;2023-02-15T03:40:40;34.60;;;18.90;;
15331;SDS011;7766;51.534;6.722;2023-02-15T03:42:05;32.70;;;18.77;;
15331;SDS011;7766;51.534;6.722;2023-02-15T03:43:12;31.10;;;19.58;;
15331;SDS011;7766;51.534;6.722;2023-02-15T03:44:19;30.80;;;18.60;;
15331;SDS011;7766;51.534;6.722;2023-02-15T03:45:31;30.75;;;19.65;;
15331;SDS011;7766;51.534;6.722;2023-02-15T03:46:43;29.05;;;18.88;;
15331;SDS011;7766;51.534;6.722;2023-02-15T03:48:00;34.50;;;19.70;;
15331;SDS011;7766;51.534;6.722;2023-02-15T03:50:18;31.83;;;19.73;;
15331;SDS011;7766;51.534;6.722;2023-02-15T03:51:46;31.27;;;19.33;;
15331;SDS011;7766;51.534;6.722;2023-02-15T03:52:51;28.73;;;17.55;;
15331;SDS011;7766;51.534;6.722;2023-02-15T03:53:54;28.92;;;19.13;;
15331;SDS011;7766;51.534;6.722;2023-02-15T03:54:57;31.67;;;18.08;;
15331;SDS011;7766;51.534;6.722;2023-02-15T03:55:58;32.33;;;19.27;;
15331;SDS011;7766;51.534;6.722;2023-02-15T03:57:00;26.95;;;17.65;;
15331;SDS011;7766;51.534;6.722;2023-02-15T03:58:20;32.05;;;19.35;;
15331;SDS011;7766;51.534;6.722;2023-02-15T03:59:40;29.40;;;18.02;;
15331;SDS011;7766;51.534;6.722;2023-02-15T04:01:00;30.80;;;19.05;;
15331;SDS011;7766;51.534;6.722;2023-02-15T04:02:28;28.05;;;17.02;;
15331;SDS011;7766;51.534;6.722;2023-02-15T04:04:11;35.00;;;18.15;;
15331;SDS011;7766;51.534;6.722;2023-02-15T04:05:22;30.30;;;18.23;;
15331;SDS011;7766;51.534;6.722;2023-02-15T04:06:23;29.98;;;18.85;;
15331;SDS011;7766;51.534;6.722;2023-02-15T04:07:24;29.85;;;18.98;;
15331;SDS011;7766;51.534;6.722;2023-02-15T04:08:25;29.20;;;17.92;;
15331;SDS011;7766;51.534;6.722;2023-02-15T04:09:46;32.25;;;17.88;;
15331;SDS011;7766;51.534;6.722;2023-02-15T04:11:05;30.27;;;18.10;;
15331;SDS011;7766;51.534;6.722;2023-02-15T04:12:06;30.05;;;18.60;;
15331;SDS011;7766;51.534;6.722;2023-02-15T04:13:08;33.75;;;20.50;;
15331;SDS011;7766;51.534;6.722;2023-02-15T04:14:09;28.60;;;18.33;;
15331;SDS011;7766;51.534;6.722;2023-02-15T04:15:28;31.83;;;19.05;;
15331;SDS011;7766;51.534;6.722;2023-02-15T04:16:48;29.70;;;18.48;;
15331;SDS011;7766;51.534;6.722;2023-02-15T04:17:49;32.70;;;19.67;;
15331;SDS011;7766;51.534;6.722;2023-02-15T04:18:50;30.23;;;18.27;;
15331;SDS011;7766;51.534;6.722;2023-02-15T04:20:10;28.70;;;19.23;;
15331;SDS011;7766;51.534;6.722;2023-02-15T04:21:30;32.95;;;18.85;;
15331;SDS011;7766;51.534;6.722;2023-02-15T04:22:49;29.52;;;17.95;;
15331;SDS011;7766;51.534;6.722;2023-02-15T04:24:09;30.95;;;19.23;;
15331;SDS011;7766;51.534;6.722;2023-02-15T04:25:30;31.77;;;19.08;;
15331;SDS011;7766;51.534;6.722;2023-02-15T04:26:30;29.48;;;18.65;;
15331;SDS011;7766;51.534;6.722;2023-02-15T04:27:32;33.37;;;20.00;;
15331;SDS011;7766;51.534;6.722;2023-02-15T04:28:33;32.53;;;19.73;;
15331;SDS011;7766;51.534;6.722;2023-02-15T04:29:34;32.85;;;19.63;;
15331;SDS011;7766;51.534;6.722;2023-02-15T04:30:34;32.20;;;19.47;;
15331;SDS011;7766;51.534;6.722;2023-02-15T04:31:36;31.98;;;19.85;;
15331;SDS011;7766;51.534;6.722;2023-02-15T04:32:36;31.27;;;19.60;;
15331;SDS011;7766;51.534;6.722;2023-02-15T04:33:38;31.40;;;19.15;;
15331;SDS011;7766;51.534;6.722;2023-02-15T04:34:39;32.97;;;19.70;;
15331;SDS011;7766;51.534;6.722;2023-02-15T04:35:40;29.88;;;19.35;;
15331;SDS011;7766;51.534;6.722;2023-02-15T04:36:43;31.33;;;19.55;;
15331;SDS011;7766;51.534;6.722;2023-02-15T04:37:44;32.67;;;19.27;;
15331;SDS011;7766;51.534;6.722;2023-02-15T04:38:45;30.73;;;18.90;;
15331;SDS011;7766;51.534;6.722;2023-02-15T04:39:46;31.08;;;18.83;;
15331;SDS011;7766;51.534;6.722;2023-02-15T04:40:50;31.70;;;18.05;;
15331;SDS011;7766;51.534;6.722;2023-02-15T04:41:52;30.90;;;19.33;;
15331;SDS011;7766;51.534;6.722;2023-02-15T04:42:53;32.58;;;19.73;;
15331;SDS011;7766;51.534;6.722;2023-02-15T04:43:54;29.97;;;18.30;;
15331;SDS011;7766;51.534;6.722;2023-02-15T04:44:54;31.37;;;18.37;;
15331;SDS011;7766;51.534;6.722;2023-02-15T04:45:55;32.75;;;18.88;;
15331;SDS011;7766;51.534;6.722;2023-02-15T04:46:58;30.52;;;18.50;;
15331;SDS011;7766;51.534;6.722;2023-02-15T04:47:59;32.05;;;19.45;;
15331;SDS011;7766;51.534;6.722;2023-02-15T04:49:00;28.43;;;19.07;;
15331;SDS011;7766;51.534;6.722;2023-02-15T04:50:02;30.50;;;19.45;;
15331;SDS011;7766;51.534;6.722;2023-02-15T04:51:06;30.42;;;19.27;;
15331;SDS011;7766;51.534;6.722;2023-02-15T04:52:07;30.23;;;19.77;;
15331;SDS011;7766;51.534;6.722;2023-02-15T04:53:09;27.77;;;17.35;;
15331;SDS011;7766;51.534;6.722;2023-02-15T04:54:10;34.33;;;20.33;;
15331;SDS011;7766;51.534;6.722;2023-02-15T04:55:11;33.93;;;19.47;;
15331;SDS011;7766;51.534;6.722;2023-02-15T04:56:14;30.40;;;19.63;;
15331;SDS011;7766;51.534;6.722;2023-02-15T04:57:15;29.95;;;20.65;;
15331;SDS011;7766;51.534;6.722;2023-02-15T04:58:15;32.60;;;19.00;;
15331;SDS011;7766;51.534;6.722;2023-02-15T04:59:16;33.40;;;19.33;;
15331;SDS011;7766;51.534;6.722;2023-02-15T05:00:17;35.13;;;20.60;;
15331;SDS011;7766;51.534;6.722;2023-02-15T05:01:18;34.17;;;19.88;;
15331;SDS011;7766;51.534;6.722;2023-02-15T05:02:19;32.53;;;19.00;;
15331;SDS011;7766;51.534;6.722;2023-02-15T05:03:20;31.85;;;19.88;;
15331;SDS011;7766;51.534;6.722;2023-02-15T05:04:21;30.33;;;18.95;;
15331;SDS011;7766;51.534;6.722;2023-02-15T05:05:22;30.30;;;19.48;;
15331;SDS011;7766;51.534;6.722;2023-02-15T05:06:23;33.23;;;19.63;;
15331;SDS011;7766;51.534;6.722;2023-02-15T05:07:24;30.45;;;19.05;;
15331;SDS011;7766;51.534;6.722;2023-02-15T05:08:25;30.58;;;18.63;;
15331;SDS011;7766;51.534;6.722;2023-02-15T05:09:26;32.53;;;19.37;;
15331;SDS011;7766;51.534;6.722;2023-02-15T05:10:27;34.63;;;20.05;;
15331;SDS011;7766;51.534;6.722;2023-02-15T05:11:27;30.33;;;19.13;;
15331;SDS011;7766;51.534;6.722;2023-02-15T05:12:28;31.23;;;19.50;;
15331;SDS011;7766;51.534;6.722;2023-02-15T05:13:29;31.17;;;18.92;;
15331;SDS011;7766;51.534;6.722;2023-02-15T05:14:30;29.65;;;18.30;;
15331;SDS011;7766;51.534;6.722;2023-02-15T05:15:31;32.20;;;18.77;;
15331;SDS011;7766;51.534;6.722;2023-02-15T05:16:32;30.80;;;18.30;;
15331;SDS011;7766;51.534;6.722;2023-02-15T05:17:33;28.88;;;18.23;;
15331;SDS011;7766;51.534;6.722;2023-02-15T05:18:34;29.52;;;19.08;;
15331;SDS011;7766;51.534;6.722;2023-02-15T05:19:35;30.77;;;18.45;;
15331;SDS011;7766;51.534;6.722;2023-02-15T05:20:36;29.40;;;18.17;;
15331;SDS011;7766;51.534;6.722;2023-02-15T05:21:37;34.63;;;19.73;;
15331;SDS011;7766;51.534;6.722;2023-02-15T05:22:38;32.70;;;19.20;;
15331;SDS011;7766;51.534;6.722;2023-02-15T05:23:40;29.95;;;18.35;;
15331;SDS011;7766;51.534;6.722;2023-02-15T05:24:41;35.05;;;18.92;;
15331;SDS011;7766;51.534;6.722;2023-02-15T05:26:01;29.67;;;18.73;;
15331;SDS011;7766;51.534;6.722;2023-02-15T05:27:21;31.60;;;18.60;;
15331;SDS011;7766;51.534;6.722;2023-02-15T05:28:40;29.40;;;17.67;;
15331;SDS011;7766;51.534;6.722;2023-02-15T05:29:41;31.48;;;19.98;;
15331;SDS011;7766;51.534;6.722;2023-02-15T05:30:42;35.65;;;21.17;;
15331;SDS011;7766;51.534;6.722;2023-02-15T05:31:43;32.03;;;18.88;;
15331;SDS011;7766;51.534;6.722;2023-02-15T05:32:47;34.80;;;19.10;;
15331;SDS011;7766;51.534;6.722;2023-02-15T05:33:48;34.85;;;19.98;;
15331;SDS011;7766;51.534;6.722;2023-02-15T05:34:49;33.53;;;20.38;;
15331;SDS011;7766;51.534;6.722;2023-02-15T05:35:50;32.60;;;18.83;;
15331;SDS011;7766;51.534;6.722;2023-02-15T05:36:51;34.55;;;21.05;;
15331;SDS011;7766;51.534;6.722;2023-02-15T05:37:52;35.85;;;19.83;;
15331;SDS011;7766;51.534;6.722;2023-02-15T05:38:53;34.50;;;20.10;;
15331;SDS011;7766;51.534;6.722;2023-02-15T05:39:54;33.63;;;20.10;;
15331;SDS011;7766;51.534;6.722;2023-02-15T05:40:55;38.70;;;20.67;;
15331;SDS011;7766;51.534;6.722;2023-02-15T05:41:59;34.10;;;20.52;;
15331;SDS011;7766;51.534;6.722;2023-02-15T05:43:01;31.30;;;19.13;;
15331;SDS011;7766;51.534;6.722;2023-02-15T05:44:02;32.78;;;19.95;;
15331;SDS011;7766;51.534;6.722;2023-02-15T05:45:03;37.45;;;19.70;;
15331;SDS011;7766;51.534;6.722;2023-02-15T05:46:05;36.70;;;20.35;;
15331;SDS011;7766;51.534;6.722;2023-02-15T05:47:06;35.17;;;20.00;;
15331;SDS011;7766;51.534;6.722;2023-02-15T05:48:08;34.67;;;20.05;;
15331;SDS011;7766;51.534;6.722;2023-02-15T05:49:09;36.80;;;20.75;;
15331;SDS011;7766;51.534;6.722;2023-02-15T05:50:10;37.85;;;21.40;;
15331;SDS011;7766;51.534;6.722;2023-02-15T05:51:12;34.28;;;20.73;;
15331;SDS011;7766;51.534;6.722;2023-02-15T05:52:14;34.17;;;18.85;;
15331;SDS011;7766;51.534;6.722;2023-02-15T05:53:15;36.78;;;20.75;;
15331;SDS011;7766;51.534;6.722;2023-02-15T05:54:16;33.13;;;19.63;;
15331;SDS011;7766;51.534;6.722;2023-02-15T05:55:17;40.10;;;20.03;;
15331;SDS011;7766;51.534;6.722;2023-02-15T05:56:19;36.45;;;20.13;;
15331;SDS011;7766;51.534;6.722;2023-02-15T05:57:20;35.22;;;21.15;;
15331;SDS011;7766;51.534;6.722;2023-02-15T05:58:21;29.85;;;19.58;;
15331;SDS011;7766;51.534;6.722;2023-02-15T05:59:22;34.38;;;19.65;;
15331;SDS011;7766;51.534;6.722;2023-02-15T06:00:23;34.77;;;20.70;;
15331;SDS011;7766;51.534;6.722;2023-02-15T06:01:25;29.27;;;18.55;;
15331;SDS011;7766;51.534;6.722;2023-02-15T06:02:25;33.97;;;20.87;;
15331;SDS011;7766;51.534;6.722;2023-02-15T06:03:26;34.95;;;20.77;;
15331;SDS011;7766;51.534;6.722;2023-02-15T06:04:28;37.42;;;20.10;;
15331;SDS011;7766;51.534;6.722;2023-02-15T06:05:29;37.20;;;20.55;;
15331;SDS011;7766;51.534;6.722;2023-02-15T06:06:30;36.50;;;20.92;;
15331;SDS011;7766;51.534;6.722;2023-02-15T06:07:31;35.78;;;21.25;;
15331;SDS011;7766;51.534;6.722;2023-02-15T06:08:33;35.95;;;20.55;;
15331;SDS011;7766;51.534;6.722;2023-02-15T06:09:35;38.33;;;19.90;;
15331;SDS011;7766;51.534;6.722;2023-02-15T06:10:36;36.38;;;19.33;;
15331;SDS011;7766;51.534;6.722;2023-02-15T06:11:37;34.60;;;19.95;;
15331;SDS011;7766;51.534;6.722;2023-02-15T06:12:37;33.73;;;19.97;;
15331;SDS011;7766;51.534;6.722;2023-02-15T06:13:38;37.70;;;20.60;;
15331;SDS011;7766;51.534;6.722;2023-02-15T06:14:39;35.90;;;20.70;;
15331;SDS011;7766;51.534;6.722;2023-02-15T06:15:43;38.37;;;21.27;;
15331;SDS011;7766;51.534;6.722;2023-02-15T06:16:43;37.15;;;20.45;;
15331;SDS011;7766;51.534;6.722;2023-02-15T06:17:44;35.72;;;20.88;;
15331;SDS011;7766;51.534;6.722;2023-02-15T06:18:45;40.75;;;20.60;;
15331;SDS011;7766;51.534;6.722;2023-02-15T06:19:46;38.53;;;22.77;;
15331;SDS011;7766;51.534;6.722;2023-02-15T06:20:47;37.83;;;21.10;;
15331;SDS011;7766;51.534;6.722;2023-02-15T06:21:48;31.88;;;19.83;;
15331;SDS011;7766;51.534;6.722;2023-02-15T06:22:49;37.30;;;20.17;;
15331;SDS011;7766;51.534;6.722;2023-02-15T06:23:50;40.75;;;22.55;;
15331;SDS011;7766;51.534;6.722;2023-02-15T06:24:51;37.00;;;21.00;;
15331;SDS011;7766;51.534;6.722;2023-02-15T06:25:52;37.57;;;21.47;;
15331;SDS011;7766;51.534;6.722;2023-02-15T06:26:53;38.40;;;21.73;;
15331;SDS011;7766;51.534;6.722;2023-02-15T06:27:54;41.28;;;22.00;;
15331;SDS011;7766;51.534;6.722;2023-02-15T06:28:55;40.55;;;21.25;;
15331;SDS011;7766;51.534;6.722;2023-02-15T06:29:55;39.87;;;22.03;;
15331;SDS011;7766;51.534;6.722;2023-02-15T06:30:56;40.60;;;21.40;;
15331;SDS011;7766;51.534;6.722;2023-02-15T06:31:57;40.15;;;21.65;;
15331;SDS011;7766;51.534;6.722;2023-02-15T06:32:58;38.93;;;21.83;;
15331;SDS011;7766;51.534;6.722;2023-02-15T06:33:59;43.88;;;22.38;;
15331;SDS011;7766;51.534;6.722;2023-02-15T06:35:03;37.42;;;21.70;;
15331;SDS011;7766;51.534;6.722;2023-02-15T06:36:04;42.58;;;22.50;;
15331;SDS011;7766;51.534;6.722;2023-02-15T06:37:06;39.28;;;22.45;;
15331;SDS011;7766;51.534;6.722;2023-02-15T06:38:08;40.58;;;22.23;;
15331;SDS011;7766;51.534;6.722;2023-02-15T06:39:09;35.17;;;20.33;;
15331;SDS011;7766;51.534;6.722;2023-02-15T06:40:10;39.37;;;22.50;;
15331;SDS011;7766;51.534;6.722;2023-02-15T06:41:11;40.70;;;21.48;;
15331;SDS011;7766;51.534;6.722;2023-02-15T06:42:12;38.22;;;21.88;;
15331;SDS011;7766;51.534;6.722;2023-02-15T06:43:13;37.42;;;21.40;;
15331;SDS011;7766;51.534;6.722;2023-02-15T06:44:14;43.15;;;22.58;;
15331;SDS011;7766;51.534;6.722;2023-02-15T06:45:15;38.40;;;20.90;;
15331;SDS011;7766;51.534;6.722;2023-02-15T06:46:16;42.58;;;22.00;;